Time;durP1;ratioP1;P1;durP2;ratioP2;P2;SDS_P1;SDS_P2;PMS_P1;PMS_P2;Temp;Humidity;BMP_temperature;BMP_pressure;BME280_temperature;BME280_humidity;BME280_pressure;Samples;Min_cycle;Max_cycle;Signal;HPM_P1;HPM_P2
2021/08/24 00:02:02;;;;;;;14.40;13.50;;;15.80;99.90;;;;;;5073416;28;20199;-69
2021/08/24 00:04:30;;;;;;;21.03;19.83;;;15.70;99.90;;;;;;5072565;28;20546;-69
2021/08/24 00:06:59;;;;;;;22.17;20.37;;;15.70;99.90;;;;;;5073082;28;20441;-69
2021/08/24 00:09:28;;;;;;;23.17;21.43;;;15.60;99.90;;;;;;5074945;28;20416;-69
2021/08/24 00:11:56;;;;;;;23.00;20.90;;;15.60;99.90;;;;;;5076737;28;20454;-69
2021/08/24 00:14:24;;;;;;;20.10;18.43;;;15.60;99.90;;;;;;5076424;28;20442;-69
2021/08/24 00:16:53;;;;;;;26.63;24.80;;;15.50;99.90;;;;;;5076363;28;20408;-69
2021/08/24 00:19:21;;;;;;;19.27;17.93;;;15.50;99.90;;;;;;5075586;28;20485;-69
2021/08/24 00:21:49;;;;;;;26.00;23.50;;;15.50;99.90;;;;;;5075145;28;20470;-69
2021/08/24 00:24:18;;;;;;;4.45;4.05;;;15.50;99.90;;;;;;5075470;28;20793;-69
2021/08/24 00:26:47;;;;;;;17.97;16.63;;;15.50;99.90;;;;;;5076235;28;20191;-69
2021/08/24 00:29:15;;;;;;;14.75;13.73;;;15.50;99.90;;;;;;5074811;28;20477;-69
2021/08/24 00:31:43;;;;;;;25.60;23.30;;;15.50;99.90;;;;;;5076492;28;20190;-69
2021/08/24 00:34:12;;;;;;;22.17;20.40;;;15.40;99.90;;;;;;5076311;28;20477;-69
2021/08/24 00:36:40;;;;;;;27.63;25.43;;;15.40;99.90;;;;;;5076317;28;20514;-69
2021/08/24 00:39:08;;;;;;;23.07;21.33;;;15.40;99.90;;;;;;5076095;28;21026;-69
2021/08/24 00:41:37;;;;;;;23.73;19.63;;;15.40;99.90;;;;;;5075896;28;20410;-69
2021/08/24 00:44:07;;;;;;;23.53;22.20;;;15.30;99.90;;;;;;5075745;28;20462;-69
2021/08/24 00:46:39;;;;;;;29.17;22.23;;;15.30;99.90;;;;;;5076256;28;20430;-69
2021/08/24 00:49:12;;;;;;;22.10;20.07;;;15.30;99.90;;;;;;5076318;28;20437;-69
2021/08/24 00:51:43;;;;;;;22.20;20.67;;;15.20;99.90;;;;;;5075514;28;20487;-69
2021/08/24 00:54:16;;;;;;;22.00;20.70;;;15.20;99.90;;;;;;5075942;28;20512;-69
2021/08/24 00:56:48;;;;;;;5.80;4.23;;;15.20;99.90;;;;;;5075130;28;20446;-69
2021/08/24 00:59:18;;;;;;;15.30;14.30;;;15.20;99.90;;;;;;5075984;28;20475;-69
2021/08/24 01:01:47;;;;;;;9.00;8.30;;;15.20;99.90;;;;;;5075623;28;20444;-69
2021/08/24 01:04:17;;;;;;;19.67;18.43;;;15.20;99.90;;;;;;5075794;28;20633;-69
2021/08/24 01:06:49;;;;;;;19.67;18.27;;;15.20;99.90;;;;;;5075548;28;20411;-69
2021/08/24 01:09:32;;;;;;;19.53;18.17;;;15.20;99.90;;;;;;5075554;28;20430;-69
2021/08/24 01:12:13;;;;;;;21.20;19.73;;;15.20;99.90;;;;;;5075326;28;21083;-69
2021/08/24 01:14:54;;;;;;;25.63;23.33;;;15.10;99.90;;;;;;5073951;28;20473;-69
2021/08/24 01:17:27;;;;;;;23.57;21.87;;;15.10;99.90;;;;;;5075678;28;20424;-69
2021/08/24 01:20:39;;;;;;;21.77;20.30;;;15.00;99.90;;;;;;5074264;28;20890;-69
2021/08/24 01:23:38;;;;;;;29.70;24.67;;;15.00;99.90;;;;;;5075011;28;20515;-69
2021/08/24 01:26:13;;;;;;;29.23;25.63;;;14.90;99.90;;;;;;5075099;28;20970;-69
2021/08/24 01:28:54;;;;;;;6.25;5.50;;;14.90;99.90;;;;;;5074962;28;20529;-69
2021/08/24 01:31:55;;;;;;;18.37;16.90;;;14.90;99.90;;;;;;5075328;28;20211;-69
2021/08/24 01:34:43;;;;;;;6.10;5.50;;;14.90;99.90;;;;;;5073853;28;20452;-69
2021/08/24 01:37:17;;;;;;;16.77;15.20;;;14.90;99.90;;;;;;5075243;28;20205;-69
2021/08/24 01:39:48;;;;;;;19.83;18.60;;;14.90;99.90;;;;;;5074931;28;20422;-69
2021/08/24 01:42:19;;;;;;;21.17;19.63;;;14.80;99.90;;;;;;5075140;28;20397;-69
2021/08/24 01:44:58;;;;;;;18.77;17.30;;;14.80;99.90;;;;;;5074771;28;20794;-69
2021/08/24 01:47:35;;;;;;;24.67;22.83;;;14.80;99.90;;;;;;5075094;28;20409;-69
2021/08/24 01:50:09;;;;;;;18.57;17.23;;;14.70;99.90;;;;;;5073442;28;20503;-69
2021/08/24 01:52:43;;;;;;;22.37;21.00;;;14.70;99.90;;;;;;5072563;28;20449;-69
2021/08/24 01:55:17;;;;;;;6.30;5.30;;;14.70;99.90;;;;;;5073792;28;20442;-69
2021/08/24 01:57:51;;;;;;;16.00;14.43;;;14.80;99.90;;;;;;5075107;28;20190;-69
2021/08/24 02:00:20;;;;;;;17.30;15.73;;;14.80;99.90;;;;;;5074821;28;20418;-69
2021/08/24 02:02:52;;;;;;;17.37;16.23;;;14.70;99.90;;;;;;5074287;28;20468;-69
2021/08/24 02:05:25;;;;;;;17.97;16.40;;;14.60;99.90;;;;;;5074611;28;20488;-69
2021/08/24 02:08:00;;;;;;;5.68;5.18;;;14.60;99.90;;;;;;5072268;28;20438;-69
2021/08/24 02:10:28;;;;;;;14.40;13.50;;;14.70;99.90;;;;;;5074600;28;20568;-69
2021/08/24 02:12:58;;;;;;;16.80;15.70;;;14.60;99.90;;;;;;5074309;28;20568;-69
2021/08/24 02:15:33;;;;;;;18.07;16.83;;;14.60;99.90;;;;;;5074439;28;20429;-69
2021/08/24 02:18:02;;;;;;;18.23;17.13;;;14.50;99.90;;;;;;5072439;28;20482;-69
2021/08/24 02:20:34;;;;;;;19.63;17.80;;;14.50;99.90;;;;;;5074078;28;20475;-69
2021/08/24 02:23:09;;;;;;;18.37;16.70;;;14.50;99.90;;;;;;5073982;28;20553;-69
2021/08/24 02:25:42;;;;;;;19.47;18.13;;;14.40;99.90;;;;;;5074546;28;20562;-69
2021/08/24 02:28:13;;;;;;;21.00;19.23;;;14.40;99.90;;;;;;5074409;28;20440;-69
2021/08/24 02:30:46;;;;;;;25.33;23.13;;;14.40;99.90;;;;;;5074054;28;20500;-69
2021/08/24 02:33:14;;;;;;;21.80;20.23;;;14.40;99.90;;;;;;5074045;28;20510;-69
2021/08/24 02:35:49;;;;;;;6.80;5.70;;;14.40;99.90;;;;;;5072759;28;20943;-69
2021/08/24 02:38:23;;;;;;;15.83;14.73;;;14.40;99.90;;;;;;5073780;28;20629;-69
2021/08/24 02:40:56;;;;;;;6.85;5.72;;;14.40;99.90;;;;;;5073379;28;20446;-69
2021/08/24 02:43:32;;;;;;;14.07;13.10;;;14.40;99.90;;;;;;5071474;28;20225;-69
2021/08/24 02:46:05;;;;;;;17.77;16.13;;;14.40;99.90;;;;;;5068231;28;20469;-69
2021/08/24 02:48:36;;;;;;;16.97;15.53;;;14.40;99.90;;;;;;5073584;28;20442;-69
2021/08/24 02:51:05;;;;;;;22.67;20.67;;;14.30;99.90;;;;;;5074080;28;20436;-69
2021/08/24 02:53:36;;;;;;;20.10;18.80;;;14.30;99.90;;;;;;5073335;28;20436;-69
2021/08/24 02:56:05;;;;;;;20.67;19.03;;;14.30;99.90;;;;;;5073804;28;20424;-69
2021/08/24 02:58:33;;;;;;;22.33;20.43;;;14.20;99.90;;;;;;5073633;28;20528;-69
2021/08/24 03:01:01;;;;;;;18.13;16.77;;;14.20;99.90;;;;;;5073502;28;20437;-69
2021/08/24 03:03:29;;;;;;;20.90;19.17;;;14.20;99.90;;;;;;5073371;28;20510;-69
2021/08/24 03:05:59;;;;;;;22.67;20.77;;;14.10;99.90;;;;;;5073351;28;20518;-69
2021/08/24 03:08:28;;;;;;;9.10;8.20;;;14.10;99.90;;;;;;5072944;28;20504;-69
2021/08/24 03:10:58;;;;;;;16.60;15.43;;;14.10;99.90;;;;;;5073304;28;20230;-69
2021/08/24 03:13:31;;;;;;;19.33;17.67;;;14.10;99.90;;;;;;5073005;28;20457;-69
2021/08/24 03:16:07;;;;;;;18.83;17.53;;;14.10;99.90;;;;;;5073867;28;20384;-69
2021/08/24 03:18:41;;;;;;;19.00;17.70;;;14.00;99.90;;;;;;5073278;28;20475;-69
2021/08/24 03:21:15;;;;;;;19.80;18.83;;;14.00;99.90;;;;;;5073461;28;20513;-69
2021/08/24 03:23:44;;;;;;;17.90;16.70;;;14.00;99.90;;;;;;5073780;28;20470;-69
2021/08/24 03:26:15;;;;;;;20.77;19.23;;;13.90;99.90;;;;;;5073423;28;20475;-69
2021/08/24 03:28:43;;;;;;;19.63;17.90;;;13.90;99.90;;;;;;5073507;28;20513;-69
2021/08/24 03:31:15;;;;;;;18.03;16.70;;;13.90;99.90;;;;;;5073123;28;20424;-69
2021/08/24 03:33:44;;;;;;;18.63;17.43;;;13.80;99.90;;;;;;5073185;28;20434;-69
2021/08/24 03:36:12;;;;;;;16.77;15.33;;;13.90;99.90;;;;;;5073434;28;20437;-69
2021/08/24 03:38:40;;;;;;;22.80;21.03;;;13.80;99.90;;;;;;5072605;28;20945;-69
2021/08/24 03:41:11;;;;;;;22.00;19.83;;;13.80;99.90;;;;;;5073374;28;20438;-69
2021/08/24 03:43:41;;;;;;;8.75;7.18;;;13.80;99.90;;;;;;5033400;28;20906;-69
2021/08/24 03:46:10;;;;;;;14.80;13.77;;;13.90;99.90;;;;;;5037380;28;20208;-69
2021/08/24 03:48:38;;;;;;;7.57;6.85;;;13.80;99.90;;;;;;5036499;28;20444;-69
2021/08/24 03:51:06;;;;;;;15.50;14.47;;;13.90;99.90;;;;;;5036976;28;20197;-69
2021/08/24 03:53:34;;;;;;;16.33;15.10;;;13.80;99.90;;;;;;5037009;28;20455;-69
2021/08/24 03:56:06;;;;;;;18.30;16.87;;;13.80;99.90;;;;;;5037649;28;20438;-69
2021/08/24 03:58:34;;;;;;;17.33;15.93;;;13.80;99.90;;;;;;5058841;28;20962;-69
2021/08/24 04:01:10;;;;;;;18.13;16.73;;;13.80;99.90;;;;;;5076614;28;20422;-69
2021/08/24 04:03:39;;;;;;;18.03;16.93;;;13.70;99.90;;;;;;5036859;28;20458;-69
2021/08/24 04:06:07;;;;;;;17.87;16.63;;;13.60;99.90;;;;;;5047308;28;20560;-69
2021/08/24 04:08:36;;;;;;;20.50;19.30;;;13.60;99.90;;;;;;5076738;28;20926;-69
2021/08/24 04:11:05;;;;;;;16.60;15.50;;;13.60;99.90;;;;;;5076442;28;20946;-69
2021/08/24 04:13:33;;;;;;;21.53;20.00;;;13.60;99.90;;;;;;5075048;28;20469;-69
2021/08/24 04:16:07;;;;;;;17.97;16.47;;;13.60;99.90;;;;;;5076929;28;20495;-69
2021/08/24 04:18:36;;;;;;;7.50;6.70;;;13.50;99.90;;;;;;5075971;28;20448;-69
2021/08/24 04:21:07;;;;;;;12.00;11.00;;;13.60;99.90;;;;;;5076327;28;20451;-69
2021/08/24 04:23:35;;;;;;;8.30;7.50;;;13.60;99.90;;;;;;5075585;28;20442;-69
2021/08/24 04:26:03;;;;;;;11.93;10.93;;;13.60;99.90;;;;;;5076493;28;20195;-69
2021/08/24 04:28:32;;;;;;;14.80;13.80;;;13.60;99.90;;;;;;5072703;28;20445;-69
2021/08/24 04:31:00;;;;;;;16.50;15.33;;;13.50;99.90;;;;;;5076144;28;20456;-69
2021/08/24 04:33:30;;;;;;;18.27;16.80;;;13.50;99.90;;;;;;5076048;28;20540;-69
2021/08/24 04:35:58;;;;;;;19.40;18.03;;;13.50;99.90;;;;;;5076380;28;20948;-69
2021/08/24 04:38:27;;;;;;;16.80;15.63;;;13.40;99.90;;;;;;5076125;28;20434;-69
2021/08/24 04:40:56;;;;;;;19.03;17.83;;;13.40;99.90;;;;;;5076513;28;20539;-69
2021/08/24 04:43:24;;;;;;;18.27;16.90;;;13.40;99.90;;;;;;5075882;28;20993;-69
2021/08/24 04:45:54;;;;;;;20.33;18.90;;;13.40;99.90;;;;;;5074652;28;20458;-69
2021/08/24 04:48:22;;;;;;;18.03;16.70;;;13.40;99.90;;;;;;5070877;28;20503;-69
2021/08/24 04:50:55;;;;;;;15.57;14.37;;;13.30;99.90;;;;;;5075713;28;20472;-69
2021/08/24 04:53:24;;;;;;;8.65;7.75;;;13.30;99.90;;;;;;5075195;28;20449;-69
2021/08/24 04:55:52;;;;;;;12.80;11.90;;;13.40;99.90;;;;;;5075250;28;20187;-68
2021/08/24 04:58:21;;;;;;;10.48;9.48;;;13.40;99.90;;;;;;5074940;28;20441;-68
2021/08/24 05:00:49;;;;;;;14.53;13.53;;;13.40;99.90;;;;;;5068650;28;20199;-69
2021/08/24 05:03:17;;;;;;;15.97;14.70;;;13.40;99.90;;;;;;5063518;28;20473;-69
2021/08/24 05:05:46;;;;;;;15.43;14.23;;;13.40;99.90;;;;;;5075406;28;20452;-69
2021/08/24 05:08:15;;;;;;;19.07;17.77;;;13.30;99.90;;;;;;5069728;28;20467;-69
2021/08/24 05:10:43;;;;;;;16.33;15.20;;;13.30;99.90;;;;;;5071634;28;20809;-69
2021/08/24 05:13:11;;;;;;;18.67;17.47;;;13.30;99.90;;;;;;5075380;28;20479;-69
2021/08/24 05:15:39;;;;;;;17.17;15.93;;;13.30;99.90;;;;;;5075972;28;20492;-69
2021/08/24 05:18:08;;;;;;;22.73;20.93;;;13.30;99.90;;;;;;5075320;28;20438;-69
2021/08/24 05:20:36;;;;;;;16.37;14.90;;;13.30;99.90;;;;;;5075207;28;20452;-69
2021/08/24 05:23:04;;;;;;;20.40;18.87;;;13.30;99.90;;;;;;5075112;28;20465;-69
2021/08/24 05:25:34;;;;;;;18.97;17.67;;;13.30;99.90;;;;;;5075524;28;20487;-69
2021/08/24 05:28:02;;;;;;;14.35;13.25;;;13.30;99.90;;;;;;5073747;28;20455;-69
2021/08/24 05:30:30;;;;;;;19.43;18.20;;;13.30;99.90;;;;;;5073817;28;20199;-69
2021/08/24 05:33:00;;;;;;;17.93;16.83;;;13.40;99.90;;;;;;5074563;28;21032;-69
2021/08/24 05:35:28;;;;;;;10.68;9.70;;;13.40;99.90;;;;;;5072921;28;20542;-71
2021/08/24 05:37:57;;;;;;;14.30;13.10;;;13.50;99.90;;;;;;5075102;28;20202;-70
2021/08/24 05:40:25;;;;;;;20.77;19.43;;;13.50;99.90;;;;;;5074959;28;20532;-70
2021/08/24 05:42:55;;;;;;;15.83;14.63;;;13.50;99.90;;;;;;5075113;28;20468;-70
2021/08/24 05:45:23;;;;;;;19.60;18.30;;;13.50;99.90;;;;;;5075365;28;20448;-70
2021/08/24 05:47:51;;;;;;;21.17;19.43;;;13.50;99.90;;;;;;5075087;28;20477;-70
2021/08/24 05:50:20;;;;;;;19.53;18.30;;;13.50;99.90;;;;;;5074733;28;20445;-70
2021/08/24 05:52:48;;;;;;;23.57;21.80;;;13.50;99.90;;;;;;5072192;28;20465;-70
2021/08/24 05:55:16;;;;;;;22.47;20.93;;;13.60;99.90;;;;;;5074655;28;21038;-70
2021/08/24 05:57:44;;;;;;;20.97;19.43;;;13.60;99.90;;;;;;5073255;28;20816;-70
2021/08/24 06:00:14;;;;;;;29.10;26.60;;;13.60;99.90;;;;;;5074842;28;20865;-70
2021/08/24 06:02:43;;;;;;;26.77;24.23;;;13.70;99.90;;;;;;5075219;28;20514;-71
2021/08/24 06:05:12;;;;;;;10.95;9.85;;;13.80;99.90;;;;;;5072696;28;20454;-70
2021/08/24 06:07:40;;;;;;;16.87;15.57;;;13.90;99.90;;;;;;5073952;28;20219;-71
2021/08/24 06:10:09;;;;;;;21.63;19.83;;;14.10;99.90;;;;;;5075281;28;20822;-70
2021/08/24 06:12:37;;;;;;;22.83;20.83;;;14.30;99.90;;;;;;5074675;28;20429;-70
2021/08/24 06:15:07;;;;;;;25.00;22.70;;;14.50;99.90;;;;;;5073653;28;20465;-70
2021/08/24 06:17:37;;;;;;;28.93;18.90;;;14.70;99.90;;;;;;5074165;28;20529;-70
2021/08/24 06:20:06;;;;;;;38.43;25.43;;;15.00;99.90;;;;;;5074850;28;20429;-71
2021/08/24 06:22:34;;;;;;;32.23;23.87;;;15.20;99.90;;;;;;5072754;28;20976;-70
2021/08/24 06:25:02;;;;;;;46.30;23.50;;;15.50;99.90;;;;;;5074316;28;20423;-71
2021/08/24 06:27:31;;;;;;;30.57;26.43;;;15.70;99.90;;;;;;5072843;28;20444;-71
2021/08/24 06:29:59;;;;;;;71.73;20.50;;;16.00;99.90;;;;;;5074659;28;20474;-71
2021/08/24 06:32:32;;;;;;;45.43;26.77;;;16.20;99.90;;;;;;5074192;28;20437;-71
2021/08/24 06:35:04;;;;;;;94.27;28.93;;;16.40;99.90;;;;;;5073469;28;20456;-71
2021/08/24 06:37:33;;;;;;;109.03;24.00;;;16.60;99.90;;;;;;5072563;28;20434;-70
2021/08/24 06:40:01;;;;;;;86.87;28.00;;;16.80;99.90;;;;;;5072559;28;20426;-70
2021/08/24 06:42:29;;;;;;;89.90;32.47;;;17.00;99.90;;;;;;5074134;28;20997;-71
2021/08/24 06:44:57;;;;;;;118.07;27.50;;;17.20;99.90;;;;;;5073918;28;20433;-70
2021/08/24 06:47:25;;;;;;;82.23;33.53;;;17.40;99.90;;;;;;5072485;28;20473;-71
2021/08/24 06:49:53;;;;;;;103.70;26.87;;;17.60;99.90;;;;;;5073928;28;20796;-71
2021/08/24 06:52:23;;;;;;;110.30;25.07;;;17.70;99.90;;;;;;5073583;28;20412;-71
2021/08/24 06:54:51;;;;;;;101.50;31.47;;;17.80;99.90;;;;;;5073780;28;20520;-71
2021/08/24 06:57:19;;;;;;;97.70;29.90;;;18.00;99.90;;;;;;5070557;28;20479;-71
2021/08/24 06:59:47;;;;;;;126.57;33.73;;;18.10;99.90;;;;;;5073718;28;20453;-71
2021/08/24 07:02:15;;;;;;;85.90;28.47;;;18.20;99.90;;;;;;5073937;28;20444;-71
2021/08/24 07:04:47;;;;;;;149.57;32.70;;;18.40;99.90;;;;;;5073643;28;20473;-71
2021/08/24 07:07:16;;;;;;;135.87;31.00;;;18.50;99.90;;;;;;5033839;28;20416;-71
2021/08/24 07:09:45;;;;;;;109.40;28.07;;;18.70;99.90;;;;;;5033652;28;20461;-71
2021/08/24 07:12:13;;;;;;;75.13;29.33;;;18.90;99.90;;;;;;5033648;28;20521;-71
2021/08/24 07:14:41;;;;;;;99.67;30.80;;;19.00;99.90;;;;;;5033612;28;20458;-71
2021/08/24 07:17:09;;;;;;;6.47;5.00;;;19.20;99.90;;;;;;5032526;28;20445;-71
2021/08/24 07:19:38;;;;;;;88.17;53.57;;;19.40;99.90;;;;;;5077423;28;20191;-71
2021/08/24 07:22:06;;;;;;;44.22;25.90;;;19.50;99.90;;;;;;5075620;28;20449;-71
2021/08/24 07:24:34;;;;;;;134.27;38.57;;;19.70;99.90;;;;;;5073879;28;20211;-71
2021/08/24 07:27:04;;;;;;;143.40;67.20;;;19.80;99.90;;;;;;5075970;28;20814;-71
2021/08/24 07:29:32;;;;;;;130.03;38.57;;;19.90;99.90;;;;;;5074654;28;20469;-71
2021/08/24 07:32:00;;;;;;;140.23;36.03;;;20.00;99.90;;;;;;5074768;28;20791;-71
2021/08/24 07:34:29;;;;;;;128.00;35.33;;;20.10;99.90;;;;;;5075092;28;20472;-71
2021/08/24 07:36:57;;;;;;;150.77;40.17;;;20.20;99.90;;;;;;5074638;28;20525;-71
2021/08/24 07:39:26;;;;;;;156.30;45.50;;;20.30;99.90;;;;;;5072106;28;20468;-71
2021/08/24 07:41:54;;;;;;;148.77;41.50;;;20.40;99.90;;;;;;5074310;28;20938;-71
2021/08/24 07:44:28;;;;;;;161.70;39.07;;;20.50;99.90;;;;;;5074674;28;20469;-71
2021/08/24 07:46:57;;;;;;;184.40;43.07;;;20.50;99.90;;;;;;5073996;28;20414;-71
2021/08/24 07:49:25;;;;;;;143.50;44.00;;;20.50;99.90;;;;;;5074297;28;20980;-71
2021/08/24 07:51:54;;;;;;;176.83;41.37;;;20.50;99.90;;;;;;5073707;28;20883;-71
2021/08/24 07:54:23;;;;;;;208.20;44.27;;;20.50;99.90;;;;;;5073896;28;20878;-71
2021/08/24 07:56:51;;;;;;;119.55;32.78;;;20.50;99.90;;;;;;5073749;28;20441;-71
2021/08/24 07:59:19;;;;;;;184.90;44.87;;;20.50;99.90;;;;;;5073696;28;20230;-71
2021/08/24 08:01:51;;;;;;;138.57;51.17;;;20.50;99.90;;;;;;5074234;28;20433;-71
2021/08/24 08:04:20;;;;;;;200.07;47.17;;;20.60;99.90;;;;;;5071832;28;20966;-71
2021/08/24 08:06:48;;;;;;;207.13;48.57;;;20.60;99.90;;;;;;5072667;28;20488;-71
2021/08/24 08:09:16;;;;;;;158.27;45.77;;;20.70;99.90;;;;;;5073451;28;20506;-71
2021/08/24 08:11:44;;;;;;;189.37;47.17;;;20.80;99.90;;;;;;5073827;28;20439;-71
2021/08/24 08:14:13;;;;;;;175.47;43.63;;;20.90;99.90;;;;;;5074053;28;20819;-71
2021/08/24 08:16:41;;;;;;;185.23;45.23;;;20.90;99.90;;;;;;5073506;28;20433;-71
2021/08/24 08:19:13;;;;;;;167.30;49.80;;;21.00;99.90;;;;;;5074431;28;20414;-71
2021/08/24 08:21:42;;;;;;;276.83;62.87;;;21.00;99.90;;;;;;5073701;28;20449;-71
2021/08/24 08:24:10;;;;;;;146.73;56.70;;;20.90;99.90;;;;;;5072479;28;20483;-71
2021/08/24 08:26:39;;;;;;;9.38;8.68;;;20.90;99.90;;;;;;5071500;28;20445;-72
2021/08/24 08:29:11;;;;;;;210.67;55.20;;;20.90;99.10;;;;;;5072820;28;20199;-71
2021/08/24 08:31:41;;;;;;;7.72;7.15;;;20.90;99.30;;;;;;5075908;28;20430;-71
2021/08/24 08:34:11;;;;;;;190.10;56.63;;;20.90;99.10;;;;;;5076158;28;20289;-71
2021/08/24 08:36:40;;;;;;;178.53;57.70;;;20.90;99.30;;;;;;5074847;28;20461;-71
2021/08/24 08:39:08;;;;;;;203.80;63.90;;;20.90;99.20;;;;;;5076132;28;20806;-71
2021/08/24 08:41:59;;;;;;;186.70;58.80;;;20.90;99.00;;;;;;5076036;28;20421;-71
2021/08/24 08:44:42;;;;;;;167.80;58.00;;;20.90;98.90;;;;;;5075965;28;20453;-71
2021/08/24 08:47:22;;;;;;;238.27;66.57;;;20.90;98.90;;;;;;5076240;28;20422;-71
2021/08/24 08:49:57;;;;;;;207.57;64.87;;;21.00;98.90;;;;;;5074007;28;20981;-71
2021/08/24 08:52:34;;;;;;;213.57;66.00;;;21.00;98.80;;;;;;5076315;28;20446;-71
2021/08/24 08:55:08;;;;;;;277.77;75.90;;;21.00;98.70;;;;;;5074647;28;20846;-71
2021/08/24 08:57:41;;;;;;;108.18;31.58;;;21.10;98.50;;;;;;5075941;28;20434;-71
2021/08/24 09:00:15;;;;;;;202.47;68.23;;;21.20;98.40;;;;;;5076034;28;20225;-71
2021/08/24 09:02:49;;;;;;;178.83;63.97;;;21.20;98.40;;;;;;5075866;28;20453;-71
2021/08/24 09:05:22;;;;;;;8.50;7.90;;;21.30;98.20;;;;;;5075067;28;20525;-71
2021/08/24 09:07:54;;;;;;;239.70;82.63;;;21.40;96.80;;;;;;5074355;28;20199;-72
2021/08/24 09:10:29;;;;;;;240.47;77.10;;;21.50;97.00;;;;;;5074233;28;20951;-71
2021/08/24 09:13:05;;;;;;;200.57;69.47;;;21.50;97.00;;;;;;5075759;28;20456;-71
2021/08/24 09:15:39;;;;;;;249.20;67.07;;;21.50;97.10;;;;;;5074832;28;20453;-71
2021/08/24 09:18:15;;;;;;;273.23;75.57;;;21.50;97.20;;;;;;5075584;28;20466;-71
2021/08/24 09:20:52;;;;;;;250.67;79.57;;;21.60;97.10;;;;;;5073926;28;20524;-72
2021/08/24 09:23:22;;;;;;;242.80;94.97;;;21.60;97.00;;;;;;5075821;28;20580;-71
2021/08/24 09:25:59;;;;;;;288.53;80.47;;;21.50;96.70;;;;;;5075069;28;20441;-72
2021/08/24 09:28:30;;;;;;;227.57;73.57;;;21.50;96.60;;;;;;5075673;28;20752;-71
2021/08/24 09:31:02;;;;;;;11.23;10.52;;;21.50;96.70;;;;;;5074249;28;20517;-71
2021/08/24 09:33:32;;;;;;;231.97;84.60;;;21.60;96.10;;;;;;5075104;28;20210;-71
2021/08/24 09:36:01;;;;;;;135.63;57.22;;;21.60;96.10;;;;;;5074880;28;20477;-72
2021/08/24 09:38:32;;;;;;;245.67;72.77;;;21.70;96.10;;;;;;5072611;28;20199;-71
2021/08/24 09:41:17;;;;;;;263.63;80.77;;;21.70;96.00;;;;;;5075219;28;20428;-71
2021/08/24 09:43:47;;;;;;;245.87;78.77;;;21.70;95.90;;;;;;5074847;28;20506;-72
2021/08/24 09:46:36;;;;;;;283.07;78.40;;;21.70;95.70;;;;;;5075041;28;20985;-72
2021/08/24 09:49:08;;;;;;;275.83;79.37;;;21.70;95.40;;;;;;5073375;28;20907;-71
2021/08/24 09:51:44;;;;;;;226.23;81.00;;;21.70;95.30;;;;;;5074987;28;20508;-71
2021/08/24 09:54:30;;;;;;;245.40;80.87;;;21.60;95.00;;;;;;5074687;28;20488;-71
2021/08/24 09:57:03;;;;;;;264.63;79.13;;;21.60;94.50;;;;;;5075250;28;20886;-72
2021/08/24 09:59:34;;;;;;;284.67;73.43;;;21.60;94.50;;;;;;5074889;28;20508;-71
2021/08/24 10:02:04;;;;;;;33.08;31.75;;;21.60;94.30;;;;;;5074197;28;20430;-71
2021/08/24 10:04:49;;;;;;;292.07;84.73;;;21.70;92.50;;;;;;5073834;28;20211;-71
2021/08/24 10:07:32;;;;;;;159.03;67.70;;;21.70;92.50;;;;;;5074639;28;20529;-72
2021/08/24 10:10:02;;;;;;;258.00;89.30;;;21.70;92.40;;;;;;5074378;28;20456;-71
2021/08/24 10:12:46;;;;;;;289.27;82.50;;;21.70;92.60;;;;;;5074893;28;20469;-71
2021/08/24 10:15:34;;;;;;;290.87;92.43;;;21.70;92.50;;;;;;5074328;28;20422;-71
2021/08/24 10:18:05;;;;;;;293.67;89.13;;;21.80;92.10;;;;;;5074613;28;20945;-71
2021/08/24 10:20:36;;;;;;;288.33;88.23;;;21.80;92.10;;;;;;5074389;28;20888;-72
2021/08/24 10:23:11;;;;;;;290.93;91.40;;;21.80;92.30;;;;;;5074164;28;20846;-71
2021/08/24 10:25:54;;;;;;;293.90;90.10;;;21.80;92.20;;;;;;5074292;28;20797;-72
2021/08/24 10:28:26;;;;;;;290.97;88.33;;;21.80;92.10;;;;;;5074000;28;20823;-72
2021/08/24 10:30:58;;;;;;;258.27;83.30;;;21.80;92.00;;;;;;5074115;28;20538;-72
2021/08/24 10:33:32;;;;;;;291.23;90.00;;;21.80;92.00;;;;;;5071549;28;20615;-71
2021/08/24 10:36:04;;;;;;;294.87;95.20;;;21.80;92.00;;;;;;5074024;28;20444;-72
2021/08/24 10:38:42;;;;;;;63.72;61.45;;;21.90;91.80;;;;;;5033293;28;20441;-71
2021/08/24 10:41:31;;;;;;;290.67;93.17;;;22.00;90.60;;;;;;5034256;28;20185;-71
2021/08/24 10:44:01;;;;;;;283.77;96.20;;;21.90;90.80;;;;;;5032701;28;20553;-71
2021/08/24 10:46:30;;;;;;;257.27;88.00;;;21.90;91.10;;;;;;5034564;28;20424;-71
2021/08/24 10:48:59;;;;;;;286.60;88.80;;;21.90;91.20;;;;;;5049339;28;20532;-71
2021/08/24 10:51:41;;;;;;;293.70;92.73;;;21.80;91.40;;;;;;5073683;28;20522;-71
2021/08/24 10:54:18;;;;;;;292.27;88.87;;;21.90;91.40;;;;;;5073162;28;20904;-71
2021/08/24 10:56:54;;;;;;;391.97;95.27;;;21.90;91.30;;;;;;5072399;28;20436;-71
2021/08/24 10:59:36;;;;;;;292.83;94.40;;;21.90;91.20;;;;;;5073035;28;20477;-71
2021/08/24 11:02:18;;;;;;;53.95;51.88;;;21.80;91.00;;;;;;5072835;28;20871;-71
2021/08/24 11:04:58;;;;;;;288.80;89.07;;;21.90;90.10;;;;;;5033800;28;20187;-71
2021/08/24 11:07:36;;;;;;;125.30;64.28;;;21.90;90.00;;;;;;5033227;28;20906;-71
2021/08/24 11:10:33;;;;;;;251.77;87.47;;;21.80;89.90;;;;;;5033494;28;20196;-72
2021/08/24 11:13:15;;;;;;;291.53;86.07;;;21.80;90.20;;;;;;5032064;28;20471;-71
2021/08/24 11:15:50;;;;;;;289.13;80.77;;;21.80;90.30;;;;;;5032300;28;20435;-71
2021/08/24 11:18:30;;;;;;;264.03;81.43;;;21.80;90.20;;;;;;5033698;28;20424;-71
2021/08/24 11:21:06;;;;;;;291.60;84.77;;;21.80;90.30;;;;;;5066914;28;20453;-71
2021/08/24 11:23:51;;;;;;;290.27;77.70;;;21.80;90.30;;;;;;5073338;28;20456;-71
2021/08/24 11:26:27;;;;;;;290.60;85.80;;;21.80;90.50;;;;;;5073255;28;20421;-71
2021/08/24 11:29:22;;;;;;;41.65;40.13;;;21.80;90.30;;;;;;5072128;28;20500;-71
2021/08/24 11:31:56;;;;;;;221.87;84.60;;;21.90;90.00;;;;;;5073022;28;20210;-71
2021/08/24 11:34:29;;;;;;;51.85;49.95;;;22.00;90.00;;;;;;5072633;28;20526;-71
2021/08/24 11:37:03;;;;;;;267.30;85.87;;;22.00;90.00;;;;;;5071805;28;20209;-71
2021/08/24 11:39:36;;;;;;;286.77;80.63;;;22.00;89.40;;;;;;5073372;28;20831;-71
2021/08/24 11:42:06;;;;;;;260.00;86.37;;;22.00;89.20;;;;;;5073008;28;20509;-71
2021/08/24 11:44:40;;;;;;;276.73;81.17;;;22.00;89.70;;;;;;5072918;28;20978;-71
2021/08/24 11:47:12;;;;;;;277.60;85.03;;;21.90;89.50;;;;;;5072738;28;20471;-71
2021/08/24 11:49:44;;;;;;;258.83;80.90;;;21.90;89.80;;;;;;5070249;28;20484;-71
2021/08/24 11:52:22;;;;;;;290.43;85.13;;;21.90;90.30;;;;;;5071336;28;20532;-71
2021/08/24 11:54:55;;;;;;;285.07;86.83;;;21.90;90.00;;;;;;5073212;28;20516;-71
2021/08/24 11:57:43;;;;;;;94.53;54.67;;;21.90;89.90;;;;;;5072638;28;20483;-71
2021/08/24 12:00:15;;;;;;;286.87;83.47;;;22.00;89.00;;;;;;5072491;28;20447;-71
2021/08/24 12:02:46;;;;;;;261.77;87.00;;;22.00;89.10;;;;;;5072794;28;20981;-71
2021/08/24 12:05:20;;;;;;;38.20;36.70;;;22.00;88.90;;;;;;5072096;28;20471;-71
2021/08/24 12:07:57;;;;;;;254.50;84.50;;;22.00;87.30;;;;;;5075057;28;20191;-71
2021/08/24 12:10:30;;;;;;;322.10;91.40;;;22.00;87.30;;;;;;5075041;28;20461;-72
2021/08/24 12:13:00;;;;;;;279.73;82.70;;;22.00;87.20;;;;;;5076555;28;20449;-71
2021/08/24 12:15:34;;;;;;;274.27;80.70;;;22.00;87.10;;;;;;5076281;28;20417;-71
2021/08/24 12:18:11;;;;;;;249.67;79.57;;;21.90;86.80;;;;;;5076231;28;20735;-72
2021/08/24 12:20:43;;;;;;;270.60;87.47;;;21.90;87.10;;;;;;5072580;28;20445;-72
2021/08/24 12:23:14;;;;;;;287.90;81.37;;;21.90;87.60;;;;;;5076056;28;20488;-71
2021/08/24 12:25:44;;;;;;;305.27;85.47;;;21.90;87.50;;;;;;5076636;28;20428;-72
2021/08/24 12:28:38;;;;;;;56.03;54.03;;;22.00;87.50;;;;;;5074946;28;20783;-71
2021/08/24 12:31:37;;;;;;;289.03;80.00;;;22.10;83.50;;;;;;5061930;28;20223;-71
2021/08/24 12:34:53;;;;;;;301.17;78.00;;;22.10;84.40;;;;;;5075936;28;20460;-71
2021/08/24 12:37:48;;;;;;;286.60;84.13;;;22.00;84.60;;;;;;5075819;28;20452;-72
2021/08/24 12:40:52;;;;;;;290.87;86.37;;;22.00;85.80;;;;;;5075690;28;20516;-71
2021/08/24 12:43:45;;;;;;;262.37;78.87;;;22.00;86.10;;;;;;5072682;28;20559;-72
2021/08/24 12:46:36;;;;;;;267.00;76.87;;;22.00;86.20;;;;;;5075672;28;20469;-72
2021/08/24 12:49:32;;;;;;;298.10;88.10;;;22.10;86.60;;;;;;5075957;28;20439;-71
2021/08/24 12:52:33;;;;;;;289.43;81.03;;;22.10;86.50;;;;;;5072951;28;20530;-71